Time;durP1;ratioP1;P1;durP2;ratioP2;P2;SDS_P1;SDS_P2;PMS_P1;PMS_P2;Temp;Humidity;BMP_temperature;BMP_pressure;BME280_temperature;BME280_humidity;BME280_pressure;Samples;Min_cycle;Max_cycle;Signal;HPM_P1;HPM_P2
2023/09/26 00:01:29;;;;;;;;;;;13.80;99.90;;;;;;12555549;28;19967;-35
2023/09/26 00:07:31;;;;;;;;;;;13.80;99.90;;;;;;12541785;28;19939;-35
2023/09/26 00:13:32;;;;;;;;;;;13.80;99.90;;;;;;12546678;28;19954;-35
2023/09/26 00:19:34;;;;;;;;;;;13.80;99.90;;;;;;12548601;28;20398;-35
2023/09/26 00:25:37;;;;;;;;;;;13.70;99.90;;;;;;12532403;28;19929;-35
2023/09/26 00:31:39;;;;;;;;;;;13.60;99.90;;;;;;12536989;28;19924;-35
2023/09/26 00:37:42;;;;;;;;;;;13.40;99.90;;;;;;12551448;28;19967;-36
2023/09/26 00:43:44;;;;;;;;;;;13.40;99.90;;;;;;12556426;28;19928;-35
2023/09/26 00:49:46;;;;;;;;;;;13.30;99.90;;;;;;12550757;28;19929;-35
2023/09/26 00:55:52;;;;;;;;;;;13.10;99.90;;;;;;12545662;28;19930;-35
2023/09/26 01:01:54;;;;;;;;;;;13.20;99.90;;;;;;12534932;28;19935;-34
2023/09/26 01:07:56;;;;;;;;;;;13.20;99.90;;;;;;12563459;28;19977;-35
2023/09/26 01:13:58;;;;;;;;;;;13.10;99.90;;;;;;12550634;28;19935;-35
2023/09/26 01:20:00;;;;;;;;;;;13.20;99.90;;;;;;12560839;28;19989;-35
2023/09/26 01:26:02;;;;;;;;;;;13.00;99.90;;;;;;12563140;28;19935;-35
2023/09/26 01:32:04;;;;;;;;;;;12.90;99.90;;;;;;12560335;28;19932;-35
2023/09/26 01:38:05;;;;;;;;;;;12.80;99.90;;;;;;12558892;28;19941;-35
2023/09/26 01:44:07;;;;;;;;;;;12.80;99.90;;;;;;12566707;28;19928;-35
2023/09/26 01:50:09;;;;;;;;;;;12.80;99.90;;;;;;12553990;28;19933;-35
2023/09/26 01:56:11;;;;;;;;;;;12.80;99.90;;;;;;12563949;28;20019;-34
2023/09/26 02:02:12;;;;;;;;;;;12.80;99.90;;;;;;12563329;28;20354;-35
2023/09/26 02:08:16;;;;;;;;;;;12.70;99.90;;;;;;12556166;28;19932;-35
2023/09/26 02:14:18;;;;;;;;;;;12.70;99.90;;;;;;12563728;28;20291;-35
2023/09/26 02:20:19;;;;;;;;;;;12.60;99.90;;;;;;12559166;28;20026;-35
2023/09/26 02:26:21;;;;;;;;;;;12.60;99.90;;;;;;12568420;28;19932;-34
2023/09/26 02:32:23;;;;;;;;;;;12.60;99.90;;;;;;12556020;28;20015;-36
2023/09/26 02:38:25;;;;;;;;;;;12.40;99.90;;;;;;12564056;28;19935;-35
2023/09/26 02:44:27;;;;;;;;;;;12.20;99.90;;;;;;12560918;28;19978;-35
2023/09/26 02:50:29;;;;;;;;;;;12.20;99.90;;;;;;12561219;28;20367;-35
2023/09/26 02:56:30;;;;;;;;;;;12.00;99.90;;;;;;12555879;28;19990;-35
2023/09/26 03:02:32;;;;;;;;;;;11.70;99.90;;;;;;12557209;28;19982;-36
2023/09/26 03:08:34;;;;;;;;;;;11.80;99.90;;;;;;12559298;28;19943;-35
2023/09/26 03:14:35;;;;;;;;;;;11.90;99.90;;;;;;12539747;28;20295;-35
2023/09/26 03:20:38;;;;;;;;;;;12.10;99.90;;;;;;12557672;28;20372;-35
2023/09/26 03:26:40;;;;;;;;;;;12.20;99.90;;;;;;12550832;28;19928;-35
2023/09/26 03:32:42;;;;;;;;;;;12.20;99.90;;;;;;12534832;28;19934;-35
2023/09/26 03:38:44;;;;;;;;;;;11.90;99.90;;;;;;12543425;28;20426;-36
2023/09/26 03:44:46;;;;;;;;;;;11.70;99.90;;;;;;12562581;28;19928;-35
2023/09/26 03:50:49;;;;;;;;;;;11.80;99.90;;;;;;12556587;28;19964;-36
2023/09/26 03:56:51;;;;;;;;;;;11.90;99.90;;;;;;12539083;28;19982;-35
2023/09/26 04:02:56;;;;;;;;;;;11.70;99.90;;;;;;12548651;28;19978;-36
2023/09/26 04:08:58;;;;;;;;;;;11.70;99.90;;;;;;12555715;28;19928;-35
2023/09/26 04:14:59;;;;;;;;;;;11.70;99.90;;;;;;12539335;28;20505;-37
2023/09/26 04:21:02;;;;;;;;;;;11.70;99.90;;;;;;12554470;28;20474;-36
2023/09/26 04:27:04;;;;;;;;;;;11.80;99.90;;;;;;12552837;28;19994;-35
2023/09/26 04:33:07;;;;;;;;;;;11.90;99.90;;;;;;12562296;28;19933;-35
2023/09/26 04:39:09;;;;;;;;;;;11.80;99.90;;;;;;12555701;28;20050;-36
2023/09/26 04:45:11;;;;;;;;;;;11.70;99.90;;;;;;12550913;28;20493;-35
2023/09/26 04:51:13;;;;;;;;;;;11.70;99.90;;;;;;12552995;28;19938;-37
2023/09/26 04:57:15;;;;;;;;;;;11.60;99.90;;;;;;12549363;28;19928;-35
2023/09/26 05:03:16;;;;;;;;;;;11.60;99.90;;;;;;12524991;28;20465;-37
2023/09/26 05:09:18;;;;;;;;;;;11.60;99.90;;;;;;12542951;28;19937;-36
2023/09/26 05:15:20;;;;;;;;;;;11.50;99.90;;;;;;12547693;28;19934;-36
2023/09/26 05:21:22;;;;;;;;;;;11.50;99.90;;;;;;12547323;28;19979;-36
2023/09/26 05:27:23;;;;;;;;;;;11.30;99.90;;;;;;12545236;28;19978;-36
2023/09/26 05:33:25;;;;;;;;;;;11.40;99.90;;;;;;12559231;28;19929;-35
2023/09/26 05:39:27;;;;;;;;;;;11.50;99.90;;;;;;12539053;28;19974;-36
2023/09/26 05:45:29;;;;;;;;;;;11.20;99.90;;;;;;12565298;28;20027;-36
2023/09/26 05:51:31;;;;;;;;;;;11.00;99.90;;;;;;12543606;28;19932;-36
2023/09/26 05:57:32;;;;;;;;;;;10.90;99.90;;;;;;12526775;28;20478;-35
2023/09/26 06:03:34;;;;;;;;;;;11.00;99.90;;;;;;12566395;28;19935;-36
2023/09/26 06:09:36;;;;;;;;;;;11.20;99.90;;;;;;12551857;28;20063;-35
2023/09/26 06:15:47;;;;;;;;;;;11.30;99.90;;;;;;12563124;28;19932;-36
2023/09/26 06:21:49;;;;;;;;;;;11.60;99.90;;;;;;12558962;28;19928;-36
2023/09/26 06:27:51;;;;;;;;;;;11.80;99.90;;;;;;12556814;28;19924;-36
2023/09/26 06:33:52;;;;;;;;;;;11.90;99.90;;;;;;12557850;28;20331;-36
2023/09/26 06:39:58;;;;;;;;;;;11.90;99.90;;;;;;12561133;28;20986;-35
2023/09/26 06:46:04;;;;;;;;;;;12.10;99.90;;;;;;12560322;28;19924;-35
2023/09/26 06:52:06;;;;;;;;;;;12.20;99.90;;;;;;12562497;28;19982;-36
2023/09/26 06:58:08;;;;;;;;;;;12.30;99.90;;;;;;12546550;28;19928;-35
2023/09/26 07:04:14;;;;;;;;;;;12.40;99.90;;;;;;12552712;28;19924;-35
2023/09/26 07:10:16;;;;;;;;;;;12.30;99.90;;;;;;12556065;28;19978;-35
2023/09/26 07:16:18;;;;;;;;;;;12.50;99.90;;;;;;12555607;28;20007;-36
2023/09/26 07:22:19;;;;;;;;;;;12.50;99.90;;;;;;12553656;28;20073;-36
2023/09/26 07:28:21;;;;;;;;;;;12.60;99.90;;;;;;12556136;28;19982;-36
2023/09/26 07:34:23;;;;;;;;;;;12.70;99.90;;;;;;12547941;28;19939;-36
2023/09/26 07:40:25;;;;;;;;;;;12.90;99.90;;;;;;12556781;28;19929;-36
2023/09/26 07:46:27;;;;;;;;;;;13.10;99.90;;;;;;12559945;28;20471;-35
2023/09/26 07:52:29;;;;;;;;;;;13.40;99.90;;;;;;12557043;28;19945;-36
2023/09/26 07:58:31;;;;;;;;;;;13.80;99.90;;;;;;12540396;28;19969;-36
2023/09/26 08:04:33;;;;;;;;;;;13.90;99.90;;;;;;12542128;28;19933;-35
2023/09/26 08:10:38;;;;;;;;;;;13.90;99.90;;;;;;12548370;28;19935;-35
2023/09/26 08:16:40;;;;;;;;;;;14.20;99.90;;;;;;12520109;28;19973;-37
2023/09/26 08:22:43;;;;;;;;;;;14.50;99.90;;;;;;12549464;28;19928;-35
2023/09/26 08:28:45;;;;;;;;;;;14.80;99.90;;;;;;12560504;28;19928;-37
2023/09/26 08:34:47;;;;;;;;;;;15.00;99.90;;;;;;12545544;28;20974;-36
2023/09/26 08:40:49;;;;;;;;;;;15.40;99.90;;;;;;12561572;28;20395;-36
2023/09/26 08:46:52;;;;;;;;;;;15.80;99.90;;;;;;12545504;28;20015;-36
2023/09/26 08:52:58;;;;;;;;;;;16.00;99.90;;;;;;12560075;28;20395;-36
2023/09/26 08:59:01;;;;;;;;;;;16.10;99.90;;;;;;12548579;28;19928;-37
2023/09/26 09:05:04;;;;;;;;;;;16.40;99.90;;;;;;12561665;28;20026;-36
2023/09/26 09:11:06;;;;;;;;;;;17.00;99.90;;;;;;12559485;28;20481;-36
2023/09/26 09:17:07;;;;;;;;;;;17.30;99.90;;;;;;12557876;28;21060;-36
2023/09/26 09:23:09;;;;;;;;;;;17.60;99.90;;;;;;12558696;28;20010;-36
2023/09/26 09:29:21;;;;;;;;;;;18.00;99.90;;;;;;12558456;28;19932;-36
2023/09/26 09:35:23;;;;;;;;;;;18.60;61.40;;;;;;12556653;28;19952;-37
2023/09/26 09:41:24;;;;;;;;;;;19.00;62.80;;;;;;12545685;28;19929;-35
2023/09/26 09:47:29;;;;;;;;;;;19.40;10.60;;;;;;12564417;28;19951;-36
2023/09/26 09:53:32;;;;;;;;;;;19.90;1.00;;;;;;12563292;28;19932;-37
2023/09/26 09:59:35;;;;;;;;;;;20.20;1.00;;;;;;12552142;28;19932;-36
2023/09/26 10:05:38;;;;;;;;;;;20.40;1.00;;;;;;12554642;28;20018;-36
2023/09/26 10:11:40;;;;;;;;;;;20.60;1.00;;;;;;12531934;28;19931;-36
2023/09/26 10:17:48;;;;;;;;;;;20.80;1.00;;;;;;12557263;28;20042;-37
2023/09/26 10:24:05;;;;;;;;;;;21.10;1.00;;;;;;12535989;28;20046;-35
2023/09/26 10:30:10;;;;;;;;;;;21.10;1.00;;;;;;12559469;28;19929;-36
2023/09/26 10:36:13;;;;;;;;;;;21.20;1.00;;;;;;12562338;28;19978;-35
2023/09/26 10:42:22;;;;;;;;;;;21.40;1.00;;;;;;12558437;28;19939;-35
2023/09/26 10:48:27;;;;;;;;;;;21.70;1.00;;;;;;12566177;28;19932;-35
2023/09/26 10:54:30;;;;;;;;;;;21.70;99.90;;;;;;12556414;28;19925;-35
2023/09/26 11:00:32;;;;;;;;;;;21.60;99.90;;;;;;12554701;28;19932;-35
2023/09/26 11:06:34;;;;;;;;;;;21.30;99.90;;;;;;12559334;28;19940;-35
2023/09/26 11:12:36;;;;;;;;;;;21.70;1.00;;;;;;12546627;28;20011;-35
2023/09/26 11:18:38;;;;;;;;;;;21.80;99.90;;;;;;12557588;28;19925;-35
2023/09/26 11:24:40;;;;;;;;;;;21.90;99.90;;;;;;12551814;28;20352;-35
2023/09/26 11:30:42;;;;;;;;;;;22.20;99.90;;;;;;12553819;28;19928;-35
2023/09/26 11:36:44;;;;;;;;;;;22.30;99.90;;;;;;12559071;28;19936;-35
2023/09/26 11:42:46;;;;;;;;;;;22.20;1.00;;;;;;12554516;28;20326;-35
2023/09/26 11:48:48;;;;;;;;;;;22.50;99.90;;;;;;12560996;28;19932;-35
2023/09/26 11:54:51;;;;;;;;;;;22.60;99.90;;;;;;12555806;28;19997;-35
2023/09/26 12:00:53;;;;;;;;;;;22.70;23.30;;;;;;12554541;28;20560;-35
2023/09/26 12:06:54;;;;;;;;;;;22.90;99.90;;;;;;12542348;28;19976;-36
2023/09/26 12:12:56;;;;;;;;;;;23.00;99.90;;;;;;12550845;28;20399;-36
2023/09/26 12:18:58;;;;;;;;;;;23.20;1.00;;;;;;12548040;28;20375;-35
2023/09/26 12:25:00;;;;;;;;;;;23.30;1.00;;;;;;12522950;28;20328;-35
2023/09/26 12:31:01;;;;;;;;;;;22.70;1.00;;;;;;12551343;28;19928;-36
2023/09/26 12:37:03;;;;;;;;;;;23.20;71.00;;;;;;12517021;28;19935;-36
2023/09/26 12:43:05;;;;;;;;;;;23.20;99.90;;;;;;12545724;28;20799;-36
2023/09/26 12:49:08;;;;;;;;;;;23.50;1.00;;;;;;12556126;28;20543;-35
2023/09/26 12:55:10;;;;;;;;;;;23.10;99.90;;;;;;12548758;28;19935;-36
2023/09/26 13:01:12;;;;;;;;;;;23.10;1.00;;;;;;12538874;28;19978;-35
2023/09/26 13:07:14;;;;;;;;;;;22.90;1.00;;;;;;12557855;28;19934;-35
2023/09/26 13:13:15;;;;;;;;;;;22.60;1.00;;;;;;12545908;28;20358;-35
2023/09/26 13:19:17;;;;;;;;;;;22.00;99.90;;;;;;12534713;28;20379;-35
2023/09/26 13:25:19;;;;;;;;;;;21.50;99.90;;;;;;12552510;28;20019;-35
2023/09/26 13:31:21;;;;;;;;;;;21.40;99.90;;;;;;12558340;28;19997;-35
2023/09/26 13:37:23;;;;;;;;;;;21.40;99.90;;;;;;12538644;28;19929;-35
2023/09/26 13:43:24;;;;;;;;;;;21.60;99.90;;;;;;12537552;28;20446;-35
2023/09/26 13:49:26;;;;;;;;;;;21.90;99.90;;;;;;12563117;28;19924;-35
2023/09/26 13:55:28;;;;;;;;;;;22.10;99.90;;;;;;12549732;28;19935;-35
2023/09/26 14:01:30;;;;;;;;;;;22.00;99.90;;;;;;12524814;28;20015;-35
2023/09/26 14:07:32;;;;;;;;;;;22.00;99.90;;;;;;12527505;28;19935;-35
2023/09/26 14:13:34;;;;;;;;;;;21.90;99.90;;;;;;12547879;28;19928;-35
2023/09/26 14:19:36;;;;;;;;;;;21.80;99.90;;;;;;12566038;28;19939;-35
2023/09/26 14:25:37;;;;;;;;;;;21.50;99.90;;;;;;12554237;28;20007;-35
2023/09/26 14:31:39;;;;;;;;;;;21.30;1.00;;;;;;12538681;28;19928;-35
2023/09/26 14:37:41;;;;;;;;;;;21.20;1.00;;;;;;12553028;28;19994;-35
2023/09/26 14:43:43;;;;;;;;;;;21.00;1.00;;;;;;12552255;28;19928;-35
2023/09/26 14:49:44;;;;;;;;;;;21.10;1.00;;;;;;12561219;28;19935;-35
2023/09/26 14:55:46;;;;;;;;;;;21.40;1.00;;;;;;12526409;28;20396;-35
2023/09/26 15:01:48;;;;;;;;;;;21.40;1.00;;;;;;12549300;28;19932;-35
2023/09/26 15:07:50;;;;;;;;;;;21.40;1.00;;;;;;12546662;28;19928;-35
2023/09/26 15:13:52;;;;;;;;;;;21.30;1.00;;;;;;12529687;28;19924;-35
2023/09/26 15:19:54;;;;;;;;;;;21.30;1.00;;;;;;12550548;28;19935;-35
2023/09/26 15:25:55;;;;;;;;;;;21.30;1.00;;;;;;12549997;28;19932;-35
2023/09/26 15:31:58;;;;;;;;;;;21.20;1.00;;;;;;12550362;28;19981;-35
2023/09/26 15:38:00;;;;;;;;;;;21.10;1.00;;;;;;12555898;28;19929;-34
2023/09/26 15:44:02;;;;;;;;;;;21.00;1.00;;;;;;12565688;28;19960;-34
2023/09/26 15:50:04;;;;;;;;;;;20.90;1.00;;;;;;12552766;28;20577;-35
2023/09/26 15:56:06;;;;;;;;;;;20.70;1.00;;;;;;12558516;28;19932;-35
2023/09/26 16:02:08;;;;;;;;;;;20.70;1.00;;;;;;12530256;28;20304;-35
2023/09/26 16:08:10;;;;;;;;;;;20.40;41.70;;;;;;12537858;28;19986;-35
2023/09/26 16:14:12;;;;;;;;;;;20.10;28.80;;;;;;12560515;28;20433;-34
2023/09/26 16:20:14;;;;;;;;;;;20.10;34.80;;;;;;12556813;28;20345;-35
2023/09/26 16:26:16;;;;;;;;;;;19.80;99.90;;;;;;12561881;28;19932;-34
2023/09/26 16:32:18;;;;;;;;;;;19.50;92.60;;;;;;12550604;28;20392;-34
2023/09/26 16:38:20;;;;;;;;;;;19.40;99.90;;;;;;12554733;28;20783;-34
2023/09/26 16:44:22;;;;;;;;;;;19.30;99.90;;;;;;12546242;28;19929;-34
2023/09/26 16:50:24;;;;;;;;;;;19.10;99.90;;;;;;12558219;28;19929;-34
2023/09/26 16:56:27;;;;;;;;;;;18.90;99.90;;;;;;12541578;28;19938;-34
2023/09/26 17:02:28;;;;;;;;;;;18.80;99.90;;;;;;12551217;28;19960;-34
2023/09/26 17:08:30;;;;;;;;;;;18.50;99.90;;;;;;12530941;28;19928;-35
2023/09/26 17:14:33;;;;;;;;;;;18.30;99.90;;;;;;12552255;28;20027;-35
2023/09/26 17:20:35;;;;;;;;;;;18.10;99.90;;;;;;12555355;28;20295;-34
2023/09/26 17:26:37;;;;;;;;;;;18.00;99.90;;;;;;12562907;28;20464;-35
2023/09/26 17:32:38;;;;;;;;;;;17.90;99.90;;;;;;12564475;28;20036;-34
2023/09/26 17:38:42;;;;;;;;;;;17.80;99.90;;;;;;12562680;28;19953;-34
2023/09/26 17:44:44;;;;;;;;;;;17.80;99.90;;;;;;12565544;28;20044;-35
2023/09/26 17:50:46;;;;;;;;;;;17.80;99.90;;;;;;12569512;28;19939;-35
2023/09/26 17:56:48;;;;;;;;;;;17.60;99.90;;;;;;12553270;28;20307;-34
2023/09/26 18:02:49;;;;;;;;;;;17.80;99.90;;;;;;12549449;28;19966;-34
2023/09/26 18:08:52;;;;;;;;;;;17.70;99.90;;;;;;12543772;28;19932;-35
2023/09/26 18:14:54;;;;;;;;;;;17.40;99.90;;;;;;12561929;28;19974;-34
2023/09/26 18:20:56;;;;;;;;;;;17.50;99.90;;;;;;12551023;28;19958;-34
2023/09/26 18:26:57;;;;;;;;;;;17.40;99.90;;;;;;12563326;28;20023;-34
2023/09/26 18:32:59;;;;;;;;;;;17.30;99.90;;;;;;12558745;28;19928;-34
2023/09/26 18:39:01;;;;;;;;;;;17.10;99.90;;;;;;12555709;28;19960;-34
2023/09/26 18:45:04;;;;;;;;;;;17.30;99.90;;;;;;12549243;28;19929;-35
2023/09/26 18:51:05;;;;;;;;;;;17.20;99.90;;;;;;12545269;28;20384;-34
2023/09/26 18:57:07;;;;;;;;;;;17.20;99.90;;;;;;12553777;28;19932;-34
2023/09/26 19:03:09;;;;;;;;;;;17.20;99.90;;;;;;12558068;28;19929;-35
2023/09/26 19:09:11;;;;;;;;;;;17.20;99.90;;;;;;12558411;28;19928;-35
2023/09/26 19:15:13;;;;;;;;;;;17.00;99.90;;;;;;12547418;28;20015;-35
2023/09/26 19:21:15;;;;;;;;;;;17.00;99.90;;;;;;12558030;28;20098;-35
2023/09/26 19:27:17;;;;;;;;;;;17.00;99.90;;;;;;12562328;28;20044;-35
2023/09/26 19:33:19;;;;;;;;;;;17.10;99.90;;;;;;12548202;28;20085;-34
2023/09/26 19:39:20;;;;;;;;;;;17.10;99.90;;;;;;12563524;28;20356;-35
2023/09/26 19:45:22;;;;;;;;;;;17.20;99.90;;;;;;12553400;28;20011;-35
2023/09/26 19:51:24;;;;;;;;;;;17.30;99.90;;;;;;12565869;28;19954;-35
2023/09/26 19:57:26;;;;;;;;;;;17.70;72.80;;;;;;12542725;28;19936;-35
2023/09/26 20:03:27;;;;;;;;;;;17.90;83.70;;;;;;12540980;28;20536;-34
2023/09/26 20:09:30;;;;;;;;;;;17.90;34.40;;;;;;12537197;28;20769;-35
2023/09/26 20:15:31;;;;;;;;;;;17.90;54.70;;;;;;12543773;28;19962;-35
2023/09/26 20:21:33;;;;;;;;;;;17.90;53.80;;;;;;12548091;28;19928;-35
2023/09/26 20:27:37;;;;;;;;;;;17.90;99.90;;;;;;12545262;28;20418;-35
2023/09/26 20:33:39;;;;;;;;;;;17.80;95.60;;;;;;12549831;28;20027;-34
2023/09/26 20:39:43;;;;;;;;;;;17.80;63.30;;;;;;12554032;28;19967;-35
2023/09/26 20:45:45;;;;;;;;;;;17.90;99.90;;;;;;12534735;28;20473;-36
2023/09/26 20:51:47;;;;;;;;;;;18.00;99.90;;;;;;12564267;28;19932;-34
2023/09/26 20:57:49;;;;;;;;;;;18.10;99.90;;;;;;12543110;28;20028;-35
2023/09/26 21:03:51;;;;;;;;;;;17.90;99.90;;;;;;12547598;28;20742;-35
2023/09/26 21:09:53;;;;;;;;;;;17.70;99.90;;;;;;12537714;28;19928;-35
2023/09/26 21:16:14;;;;;;;;;;;17.60;99.90;;;;;;12559199;28;19924;-35
2023/09/26 21:22:17;;;;;;;;;;;17.50;99.90;;;;;;12565438;28;19995;-35
2023/09/26 21:28:18;;;;;;;;;;;17.30;99.90;;;;;;12565476;28;20463;-34
2023/09/26 21:34:20;;;;;;;;;;;17.20;99.90;;;;;;12564458;28;19974;-35
2023/09/26 21:40:22;;;;;;;;;;;17.20;99.90;;;;;;12566755;28;19978;-34
2023/09/26 21:46:24;;;;;;;;;;;17.00;99.90;;;;;;12563150;28;20019;-34
2023/09/26 21:52:25;;;;;;;;;;;16.80;99.90;;;;;;12571071;28;19929;-34
2023/09/26 21:58:27;;;;;;;;;;;16.90;99.90;;;;;;12550987;28;20332;-35
2023/09/26 22:04:29;;;;;;;;;;;16.90;99.90;;;;;;12558462;28;19928;-35
2023/09/26 22:10:32;;;;;;;;;;;16.80;99.90;;;;;;12557250;28;19986;-35
2023/09/26 22:16:34;;;;;;;;;;;16.90;99.90;;;;;;12548115;28;19932;-34
2023/09/26 22:22:37;;;;;;;;;;;17.00;99.90;;;;;;12542033;28;20051;-35
2023/09/26 22:28:39;;;;;;;;;;;17.00;99.90;;;;;;12561698;28;20015;-35
2023/09/26 22:34:41;;;;;;;;;;;16.90;99.90;;;;;;12550853;28;19928;-35
2023/09/26 22:40:42;;;;;;;;;;;16.90;99.90;;;;;;12558292;28;20285;-35
2023/09/26 22:46:52;;;;;;;;;;;16.70;99.90;;;;;;12564307;28;19974;-34
2023/09/26 22:52:54;;;;;;;;;;;16.40;99.90;;;;;;12540359;28;20018;-34
2023/09/26 22:58:56;;;;;;;;;;;16.30;99.90;;;;;;12550313;28;19928;-34
2023/09/26 23:05:00;;;;;;;;;;;16.50;99.90;;;;;;12520383;28;19963;-34
2023/09/26 23:11:02;;;;;;;;;;;15.90;99.90;;;;;;12540049;28;19978;-34
2023/09/26 23:17:04;;;;;;;;;;;16.10;99.90;;;;;;12533120;28;19936;-34
2023/09/26 23:23:06;;;;;;;;;;;16.00;99.90;;;;;;12552484;28;19936;-34
2023/09/26 23:29:08;;;;;;;;;;;16.00;99.90;;;;;;12556244;28;20368;-34
2023/09/26 23:35:18;;;;;;;;;;;16.00;99.90;;;;;;12552195;28;19928;-35
2023/09/26 23:41:21;;;;;;;;;;;15.90;99.90;;;;;;12559166;28;20284;-34
2023/09/26 23:47:22;;;;;;;;;;;15.90;99.90;;;;;;12552284;28;20019;-34
2023/09/26 23:53:26;;;;;;;;;;;16.00;99.90;;;;;;12563441;28;19948;-34
2023/09/26 23:59:28;;;;;;;;;;;16.20;99.90;;;;;;12548162;28;20010;-34
